NCAR-RAP Real-Time Weather Data

Output produced by METARs form (08 May 2021  02:28 UTC)
found at http://weather.rap.ucar.edu/surface/
 
KSHR 080153Z AUTO 36003KT 10SM CLR 18/09 A2957 RMK AO2 SLP995 T01830089
KSHR 080053Z AUTO 07007KT 10SM CLR 23/07 A2959 RMK AO2 SLP998 T02280072
KSHR 072353Z AUTO 14008KT 10SM CLR 27/04 A2958 RMK AO2 SLP995 T02670044 10278 20178 56035
KSHR 072253Z AUTO 15009KT 10SM CLR 28/06 A2961 RMK AO2 SLP003 T02780061
KSHR 072153Z AUTO 14009KT 10SM CLR 27/04 A2965 RMK AO2 SLP016 T02720039
KSHR 072053Z AUTO 13009KT 10SM CLR 27/05 A2970 RMK AO2 SLP034 T02670050 56044
KSHR 071953Z AUTO 14013G19KT 10SM CLR 25/06 A2975 RMK AO2 SLP051 T02500056
KSHR 071853Z AUTO 14004KT 10SM CLR 21/07 A2979 RMK AO2 SLP072 T02060072
KSHR 071753Z AUTO 34003KT 10SM CLR 18/07 A2984 RMK AO2 SLP087 T01780067 10178 20022 58019 $
KSHR 071653Z AUTO 26005KT 10SM CLR 14/06 A2986 RMK AO2 SLP100 T01440061 $
KSHR 071553Z AUTO VRB04KT 10SM CLR 14/06 A2989 RMK AO2 SLP110 T01390061
KSHR 071453Z AUTO 00000KT 10SM CLR 11/03 A2991 RMK AO2 SLP118 T01060033 58012
KSHR 071353Z AUTO 00000KT 10SM CLR 09/04 A2992 RMK AO2 SLP119 T00890039
KSHR 071253Z AUTO 00000KT 10SM CLR 06/03 A2994 RMK AO2 SLP126 T00560028